createdAt,value
2022-12-06T00:01:42.710Z,100330.50
2022-12-06T00:06:39.129Z,100334.19
2022-12-06T00:11:36.042Z,100335.00
2022-12-06T00:16:29.059Z,100331.50
2022-12-06T00:21:22.208Z,100338.72
2022-12-06T00:26:14.762Z,100334.84
2022-12-06T00:31:09.238Z,100331.34
2022-12-06T00:36:04.340Z,100335.34
2022-12-06T00:41:07.029Z,100333.31
2022-12-06T00:45:59.168Z,100322.88
2022-12-06T00:50:51.316Z,100317.00
2022-12-06T00:55:44.166Z,100330.78
2022-12-06T01:00:35.900Z,100320.50
2022-12-06T01:05:27.921Z,100309.44
2022-12-06T01:10:19.754Z,100304.53
2022-12-06T01:15:11.503Z,100292.75
2022-12-06T01:20:04.851Z,100297.78
2022-12-06T01:24:56.565Z,100288.84
2022-12-06T01:29:48.316Z,100297.69
2022-12-06T01:34:40.163Z,100299.31
2022-12-06T01:39:32.401Z,100295.94
2022-12-06T01:44:58.368Z,100294.88
2022-12-06T01:49:54.671Z,100286.78
2022-12-06T01:54:46.864Z,100279.53
2022-12-06T01:59:38.724Z,100277.94
2022-12-06T02:04:31.900Z,100275.19
2022-12-06T02:09:24.517Z,100275.00
2022-12-06T02:14:23.826Z,100271.78
2022-12-06T02:19:34.051Z,100266.91
2022-12-06T02:24:56.947Z,100269.19
2022-12-06T02:30:44.048Z,100269.50
2022-12-06T02:35:39.071Z,100270.81
2022-12-06T02:40:39.894Z,100265.94
2022-12-06T02:45:36.047Z,100269.22
2022-12-06T02:50:37.403Z,100260.63
2022-12-06T02:55:30.362Z,100260.44
2022-12-06T03:00:35.951Z,100260.22
2022-12-06T03:05:38.554Z,100256.44
2022-12-06T03:10:45.213Z,100249.72
2022-12-06T03:15:42.311Z,100243.31
2022-12-06T03:20:50.026Z,100234.88
2022-12-06T03:25:43.510Z,100249.72
2022-12-06T03:30:36.198Z,100231.03
2022-12-06T03:35:31.842Z,100236.69
2022-12-06T03:40:30.607Z,100219.41
2022-12-06T03:45:31.899Z,100226.88
2022-12-06T03:50:32.462Z,100215.66
2022-12-06T03:55:24.135Z,100211.06
2022-12-06T04:00:16.728Z,100213.50
2022-12-06T04:05:08.956Z,100220.81
2022-12-06T04:10:03.859Z,100215.78
2022-12-06T04:14:55.650Z,100203.00
2022-12-06T04:19:51.925Z,100212.19
2022-12-06T04:24:44.051Z,100206.41
2022-12-06T04:29:54.411Z,100196.31
2022-12-06T04:35:04.366Z,100202.53
2022-12-06T04:39:56.105Z,100187.75
2022-12-06T04:44:47.980Z,100194.66
2022-12-06T04:49:39.731Z,100193.94
2022-12-06T04:54:31.951Z,100201.38
2022-12-06T04:59:25.442Z,100199.00
2022-12-06T05:04:17.288Z,100206.19
2022-12-06T05:09:09.580Z,100207.00
2022-12-06T05:14:01.242Z,100207.31
2022-12-06T05:18:52.933Z,100205.53
2022-12-06T05:23:44.582Z,100212.88
2022-12-06T05:28:36.533Z,100208.78
2022-12-06T05:33:28.829Z,100208.41
2022-12-06T05:38:20.754Z,100218.41
2022-12-06T05:43:13.329Z,100220.50
2022-12-06T05:48:06.055Z,100216.63
2022-12-06T05:52:59.860Z,100220.28
2022-12-06T05:57:52.407Z,100217.06
2022-12-06T06:02:44.811Z,100212.97
2022-12-06T06:07:36.984Z,100233.81
2022-12-06T06:12:28.655Z,100219.88
2022-12-06T06:17:20.406Z,100230.88
2022-12-06T06:22:12.150Z,100220.63
2022-12-06T06:27:04.243Z,100225.56
2022-12-06T06:31:56.444Z,100213.59
2022-12-06T06:36:48.498Z,100214.63
2022-12-06T06:41:40.210Z,100208.84
2022-12-06T06:46:32.245Z,100206.75
2022-12-06T06:51:24.207Z,100210.84
2022-12-06T06:56:16.134Z,100216.06
2022-12-06T07:01:09.820Z,100206.34
2022-12-06T07:06:08.382Z,100217.03
2022-12-06T07:11:00.795Z,100217.84
2022-12-06T07:15:53.507Z,100222.66
2022-12-06T07:20:46.321Z,100211.13
2022-12-06T07:25:39.046Z,100213.53
2022-12-06T07:30:30.751Z,100216.47
2022-12-06T07:35:23.122Z,100221.81
2022-12-06T07:40:16.128Z,100211.00
2022-12-06T07:45:09.255Z,100213.53
2022-12-06T07:50:01.292Z,100215.19
2022-12-06T07:54:53.269Z,100208.19
2022-12-06T07:59:45.015Z,100207.19
2022-12-06T08:04:37.090Z,100213.66
2022-12-06T08:09:29.126Z,100220.13
2022-12-06T08:14:20.821Z,100220.69
2022-12-06T08:19:12.649Z,100224.06
2022-12-06T08:24:04.604Z,100221.53
2022-12-06T08:28:56.337Z,100227.72
2022-12-06T08:33:48.476Z,100232.66
2022-12-06T08:38:40.799Z,100218.28
2022-12-06T08:43:32.837Z,100204.06
2022-12-06T08:48:24.769Z,100200.53
2022-12-06T08:53:16.556Z,100202.47
2022-12-06T08:58:08.701Z,100205.09
2022-12-06T09:03:00.399Z,100205.06
2022-12-06T09:07:52.360Z,100208.69
2022-12-06T09:12:44.043Z,100216.13
2022-12-06T09:17:36.112Z,100217.38
2022-12-06T09:22:28.277Z,100221.41
2022-12-06T09:27:20.372Z,100218.34
2022-12-06T09:32:12.088Z,100218.16
2022-12-06T09:37:11.656Z,100240.88
2022-12-06T09:42:15.245Z,100241.44
2022-12-06T09:47:44.776Z,100247.53
2022-12-06T09:52:41.705Z,100260.31
2022-12-06T09:57:42.916Z,100271.75
2022-12-06T10:02:58.256Z,100267.22
2022-12-06T10:08:29.184Z,100264.25
2022-12-06T10:13:45.547Z,100252.56
2022-12-06T10:18:52.270Z,100255.31
2022-12-06T10:24:02.373Z,100259.06
2022-12-06T10:29:17.259Z,100250.09
2022-12-06T10:34:21.022Z,100251.88
2022-12-06T10:39:24.159Z,100263.31
2022-12-06T10:44:56.667Z,100259.63
2022-12-06T10:50:03.697Z,100249.88
2022-12-06T10:55:13.671Z,100255.28
2022-12-06T11:00:25.120Z,100237.78
2022-12-06T11:05:23.107Z,100226.41
2022-12-06T11:10:27.065Z,100236.03
2022-12-06T11:15:24.149Z,100228.75
2022-12-06T11:20:29.084Z,100241.34
2022-12-06T11:25:30.713Z,100249.94
2022-12-06T11:30:22.921Z,100250.44
2022-12-06T11:35:18.668Z,100244.56
2022-12-06T11:40:25.854Z,100246.28
2022-12-06T11:45:25.301Z,100249.13
2022-12-06T11:50:20.028Z,100241.75
2022-12-06T11:55:36.004Z,100223.50
2022-12-06T12:00:29.107Z,100210.09
2022-12-06T12:05:38.959Z,100199.38
2022-12-06T12:10:39.707Z,100203.41
2022-12-06T12:15:32.951Z,100181.41
2022-12-06T12:20:28.389Z,100166.44
2022-12-06T12:25:20.591Z,100170.47
2022-12-06T12:30:15.513Z,100164.41
2022-12-06T12:35:25.450Z,100160.38
2022-12-06T12:40:41.961Z,100162.03
2022-12-06T12:45:33.749Z,100156.28
2022-12-06T12:50:26.459Z,100147.47
2022-12-06T12:55:26.242Z,100152.50
2022-12-06T13:00:33.042Z,100152.50
2022-12-06T13:05:34.347Z,100150.47
2022-12-06T13:10:34.246Z,100149.06
2022-12-06T13:15:32.110Z,100159.94
2022-12-06T13:20:30.591Z,100161.75
2022-12-06T13:25:22.754Z,100152.69
2022-12-06T13:30:23.964Z,100157.38
2022-12-06T13:35:30.127Z,100146.50
2022-12-06T13:40:33.800Z,100149.66
2022-12-06T13:45:40.892Z,100128.84
2022-12-06T13:50:32.517Z,100118.25
2022-12-06T13:55:24.520Z,100118.13
2022-12-06T14:00:49.379Z,100117.50
2022-12-06T14:06:13.902Z,100109.13
2022-12-06T14:11:12.445Z,100107.78
2022-12-06T14:16:05.227Z,100120.91
2022-12-06T14:20:58.184Z,100113.69
2022-12-06T14:25:49.983Z,100119.41
2022-12-06T14:30:43.761Z,100103.91
2022-12-06T14:35:38.598Z,100103.38
2022-12-06T14:41:09.478Z,100082.84
2022-12-06T14:46:04.995Z,100093.25
2022-12-06T14:51:01.364Z,100091.38
2022-12-06T14:56:19.195Z,100101.31
2022-12-06T15:01:27.032Z,100115.31
2022-12-06T15:06:24.411Z,100112.47
2022-12-06T15:11:35.949Z,100120.22
2022-12-06T15:16:27.752Z,100108.47
2022-12-06T15:21:19.711Z,100109.00
2022-12-06T15:26:12.190Z,100109.50
2022-12-06T15:31:30.375Z,100108.22
2022-12-06T15:36:33.308Z,100101.16
2022-12-06T15:41:27.194Z,100110.25
2022-12-06T15:46:24.241Z,100107.94
2022-12-06T15:51:20.769Z,100119.06
2022-12-06T15:56:18.931Z,100108.47
2022-12-06T16:01:18.289Z,100107.47
2022-12-06T16:06:17.880Z,100106.81
2022-12-06T16:11:12.729Z,100116.72
2022-12-06T16:16:05.448Z,100107.00
2022-12-06T16:20:57.198Z,100101.97
2022-12-06T16:25:49.390Z,100100.63
2022-12-06T16:30:42.113Z,100097.94
2022-12-06T16:35:33.999Z,100106.69
2022-12-06T16:40:28.149Z,100102.00
2022-12-06T16:45:20.117Z,100111.88
2022-12-06T16:50:25.022Z,100111.72
2022-12-06T16:55:16.742Z,100105.50
2022-12-06T17:00:10.583Z,100103.00
2022-12-06T17:05:06.650Z,100103.00
2022-12-06T17:09:59.662Z,100102.00
2022-12-06T17:14:52.731Z,100106.34
2022-12-06T17:19:44.728Z,100098.47
2022-12-06T17:24:36.934Z,100095.28
2022-12-06T17:29:28.792Z,100098.47
2022-12-06T17:34:22.465Z,100104.16
2022-12-06T17:39:17.261Z,100113.91
2022-12-06T17:44:10.551Z,100098.47
2022-12-06T17:49:02.665Z,100100.28
2022-12-06T17:53:55.668Z,100114.75
2022-12-06T17:58:47.482Z,100115.25
2022-12-06T18:03:39.366Z,100120.78
2022-12-06T18:08:31.071Z,100121.59
2022-12-06T18:13:22.898Z,100135.03
2022-12-06T18:18:14.730Z,100130.81
2022-12-06T18:23:06.864Z,100135.19
2022-12-06T18:27:58.596Z,100132.84
2022-12-06T18:32:50.348Z,100132.34
2022-12-06T18:37:42.290Z,100145.25
2022-12-06T18:42:34.241Z,100156.66
2022-12-06T18:47:26.112Z,100165.53
2022-12-06T18:52:17.707Z,100159.00
2022-12-06T18:57:09.476Z,100170.41
2022-12-06T19:02:01.318Z,100163.03
2022-12-06T19:06:53.198Z,100175.97
2022-12-06T19:11:46.230Z,100177.16
2022-12-06T19:16:41.104Z,100173.47
2022-12-06T19:21:33.918Z,100157.53
2022-12-06T19:26:27.217Z,100159.19
2022-12-06T19:31:20.702Z,100165.91
2022-12-06T19:36:24.984Z,100147.47
2022-12-06T19:41:18.184Z,100162.03
2022-12-06T19:46:15.650Z,100165.06
2022-12-06T19:51:08.663Z,100177.47
2022-12-06T19:56:00.689Z,100177.59
2022-12-06T20:00:52.678Z,100185.47
2022-12-06T20:05:44.432Z,100177.59
2022-12-06T20:10:37.073Z,100182.63
2022-12-06T20:15:29.008Z,100171.22
2022-12-06T20:20:20.971Z,100172.72
2022-12-06T20:25:12.739Z,100158.28
2022-12-06T20:30:06.388Z,100176.38
2022-12-06T20:34:58.080Z,100164.16
2022-12-06T20:39:49.808Z,100151.66
2022-12-06T20:44:41.507Z,100165.88
2022-12-06T20:49:33.617Z,100173.09
2022-12-06T20:54:25.563Z,100174.88
2022-12-06T20:59:17.403Z,100168.19
2022-12-06T21:04:12.846Z,100168.81
2022-12-06T21:09:05.108Z,100159.56
2022-12-06T21:13:57.943Z,100160.34
2022-12-06T21:18:55.164Z,100162.53
2022-12-06T21:23:46.875Z,100153.75
2022-12-06T21:28:38.666Z,100161.63
2022-12-06T21:33:30.517Z,100159.22
2022-12-06T21:38:22.482Z,100154.34
2022-12-06T21:43:14.174Z,100155.44
2022-12-06T21:48:07.558Z,100159.72
2022-12-06T21:52:59.405Z,100159.03
2022-12-06T21:57:51.145Z,100166.91
2022-12-06T22:02:44.018Z,100163.03
2022-12-06T22:07:36.192Z,100164.78
2022-12-06T22:12:28.310Z,100167.59
2022-12-06T22:17:20.021Z,100163.75
2022-12-06T22:22:12.404Z,100176.72
2022-12-06T22:27:04.236Z,100169.47
2022-12-06T22:31:56.819Z,100177.13
2022-12-06T22:36:48.589Z,100169.91
2022-12-06T22:41:40.277Z,100167.56
2022-12-06T22:46:33.894Z,100161.00
2022-12-06T22:51:31.196Z,100166.81
2022-12-06T22:56:23.567Z,100162.38
2022-12-06T23:01:18.560Z,100181.78
2022-12-06T23:06:10.341Z,100183.06
2022-12-06T23:11:11.845Z,100177.84
2022-12-06T23:16:06.889Z,100180.84
2022-12-06T23:21:26.489Z,100181.00
2022-12-06T23:26:21.236Z,100174.97
2022-12-06T23:31:15.857Z,100183.28
2022-12-06T23:36:09.495Z,100185.28
2022-12-06T23:41:02.961Z,100168.97
2022-12-06T23:45:59.233Z,100177.28
2022-12-06T23:51:23.069Z,100167.59
2022-12-06T23:56:17.663Z,100175.22
